createdAt,value
2017-10-10T00:00:21.143Z,88.23
2017-10-10T00:01:01.700Z,88.04
2017-10-10T00:01:42.268Z,88.23
2017-10-10T00:02:22.803Z,87.56
2017-10-10T00:03:03.368Z,87.56
2017-10-10T00:03:43.895Z,87.76
2017-10-10T00:04:24.458Z,88.43
2017-10-10T00:05:05.016Z,87.95
2017-10-10T00:05:45.586Z,87.95
2017-10-10T00:06:26.126Z,87.95
2017-10-10T00:07:06.676Z,87.56
2017-10-10T00:07:47.216Z,87.66
2017-10-10T00:08:27.795Z,87.66
2017-10-10T00:09:08.391Z,87.56
2017-10-10T00:09:48.948Z,87.95
2017-10-10T00:10:29.493Z,88.23
2017-10-10T00:11:10.056Z,87.85
2017-10-10T00:11:50.635Z,87.71
2017-10-10T00:12:31.206Z,88.13
2017-10-10T00:13:11.710Z,87.66
2017-10-10T00:13:52.280Z,88
2017-10-10T00:14:32.858Z,87.66
2017-10-10T00:15:13.419Z,88.33
2017-10-10T00:15:53.989Z,88.19
2017-10-10T00:16:34.569Z,88.04
2017-10-10T00:17:15.106Z,88.04
2017-10-10T00:17:55.655Z,87.85
2017-10-10T00:18:36.223Z,88.71
2017-10-10T00:19:16.804Z,87.56
2017-10-10T00:19:57.344Z,87.95
2017-10-10T00:20:37.887Z,87.76
2017-10-10T00:21:18.435Z,87.08
2017-10-10T00:21:58.997Z,87.71
2017-10-10T00:22:39.534Z,87.95
2017-10-10T00:23:20.091Z,88.04
2017-10-10T00:24:00.652Z,88.13
2017-10-10T00:24:41.174Z,87.56
2017-10-10T00:25:21.735Z,88.29
2017-10-10T00:26:02.275Z,87.52
2017-10-10T00:26:42.819Z,88.19
2017-10-10T00:27:23.368Z,87.95
2017-10-10T00:28:03.926Z,87.76
2017-10-10T00:28:44.503Z,88.09
2017-10-10T00:29:25.049Z,87.52
2017-10-10T00:30:05.610Z,88
2017-10-10T00:30:46.177Z,88.67
2017-10-10T00:31:26.722Z,87.62
2017-10-10T00:32:07.296Z,87.81
2017-10-10T00:32:47.852Z,87.81
2017-10-10T00:33:28.414Z,87.71
2017-10-10T00:34:08.966Z,87.85
2017-10-10T00:34:49.522Z,88.13
2017-10-10T00:35:30.050Z,87.81
2017-10-10T00:36:10.609Z,88.04
2017-10-10T00:36:51.166Z,88.04
2017-10-10T00:37:31.732Z,87.85
2017-10-10T00:38:12.286Z,87.71
2017-10-10T00:38:52.865Z,87.95
2017-10-10T00:39:33.434Z,87.95
2017-10-10T00:40:13.933Z,87.81
2017-10-10T00:40:54.479Z,88.04
2017-10-10T00:41:35.048Z,88.04
2017-10-10T00:42:15.602Z,88.04
2017-10-10T00:42:56.157Z,87.66
2017-10-10T00:43:36.703Z,87.52
2017-10-10T00:44:17.253Z,88.13
2017-10-10T00:44:57.781Z,88.13
2017-10-10T00:45:38.360Z,87.95
2017-10-10T00:46:18.869Z,88.09
2017-10-10T00:46:59.427Z,88.33
2017-10-10T00:47:39.986Z,88.04
2017-10-10T00:48:20.525Z,87.56
2017-10-10T00:49:01.090Z,88.09
2017-10-10T00:49:41.657Z,87.9
2017-10-10T00:50:22.203Z,87.52
2017-10-10T00:51:02.793Z,87.9
2017-10-10T00:51:43.330Z,87.43
2017-10-10T00:52:23.865Z,87.9
2017-10-10T00:53:04.452Z,87.52
2017-10-10T00:53:45.006Z,88.29
2017-10-10T00:54:25.597Z,87.66
2017-10-10T00:55:06.140Z,87.9
2017-10-10T00:55:46.695Z,87.9
2017-10-10T00:56:27.242Z,87.81
2017-10-10T00:57:07.769Z,87.52
2017-10-10T00:57:48.341Z,87.9
2017-10-10T00:58:28.892Z,88.09
2017-10-10T00:59:09.461Z,87.71
2017-10-10T00:59:50.035Z,88.19
2017-10-10T01:00:30.594Z,88.38
2017-10-10T01:01:11.159Z,88.09
2017-10-10T01:01:51.708Z,87.9
2017-10-10T01:02:32.257Z,87.81
2017-10-10T01:03:12.791Z,88.29
2017-10-10T01:03:53.309Z,88.29
2017-10-10T01:04:33.873Z,88.57
2017-10-10T01:05:14.446Z,88.29
2017-10-10T01:05:55.016Z,88.48
2017-10-10T01:06:35.569Z,88.67
2017-10-10T01:07:16.129Z,88.67
2017-10-10T01:07:56.671Z,88.38
2017-10-10T01:08:37.206Z,88.09
2017-10-10T01:09:17.755Z,88.67
2017-10-10T01:09:58.290Z,88.76
2017-10-10T01:10:38.839Z,88.67
2017-10-10T01:11:19.414Z,88.48
2017-10-10T01:11:59.965Z,88.29
2017-10-10T01:12:40.522Z,88.76
2017-10-10T01:13:21.059Z,88.67
2017-10-10T01:14:01.589Z,88
2017-10-10T01:14:42.137Z,88.29
2017-10-10T01:15:22.685Z,88.86
2017-10-10T01:16:03.233Z,88.57
2017-10-10T01:16:43.797Z,88.86
2017-10-10T01:17:24.361Z,88.09
2017-10-10T01:18:04.920Z,88.38
2017-10-10T01:18:45.483Z,88.95
2017-10-10T01:19:26.040Z,88.76
2017-10-10T01:20:06.596Z,88.48
2017-10-10T01:20:47.151Z,88.76
2017-10-10T01:21:27.720Z,88.67
2017-10-10T01:22:08.250Z,88.52
2017-10-10T01:22:48.810Z,87.81
2017-10-10T01:23:29.372Z,88.13
2017-10-10T01:24:09.950Z,87.81
2017-10-10T01:24:50.502Z,87.9
2017-10-10T01:25:31.066Z,88.09
2017-10-10T01:26:11.610Z,88.38
2017-10-10T01:26:52.187Z,88.38
2017-10-10T01:27:32.760Z,88.38
2017-10-10T01:28:13.313Z,88.38
2017-10-10T01:28:53.850Z,88.09
2017-10-10T01:29:34.365Z,88.38
2017-10-10T01:30:14.899Z,88.13
2017-10-10T01:30:55.442Z,87.9
2017-10-10T01:31:35.985Z,87.62
2017-10-10T01:32:16.540Z,88.09
2017-10-10T01:32:57.100Z,88.67
2017-10-10T01:33:37.651Z,88.86
2017-10-10T01:34:18.191Z,88.57
2017-10-10T01:34:58.748Z,88.19
2017-10-10T01:35:39.304Z,88.19
2017-10-10T01:36:19.858Z,88.76
2017-10-10T01:37:00.419Z,88.19
2017-10-10T01:37:40.971Z,88.48
2017-10-10T01:38:21.501Z,88.19
2017-10-10T01:39:02.059Z,88.19
2017-10-10T01:39:42.596Z,88.19
2017-10-10T01:40:23.175Z,88.29
2017-10-10T01:41:03.705Z,88.67
2017-10-10T01:41:44.227Z,88.19
2017-10-10T01:42:24.786Z,88.19
2017-10-10T01:43:05.325Z,88.57
2017-10-10T01:43:45.878Z,88.76
2017-10-10T01:44:26.443Z,88.67
2017-10-10T01:45:07.004Z,88.57
2017-10-10T01:45:47.573Z,88.38
2017-10-10T01:46:28.091Z,88.76
2017-10-10T01:47:08.641Z,88.86
2017-10-10T01:47:49.194Z,88.76
2017-10-10T01:48:29.748Z,89.05
2017-10-10T01:49:10.298Z,89.15
2017-10-10T01:49:50.849Z,88.48
2017-10-10T01:50:31.425Z,88.95
2017-10-10T01:51:11.975Z,89.24
2017-10-10T01:51:52.525Z,89.15
2017-10-10T01:52:33.051Z,89.24
2017-10-10T01:53:13.641Z,89.15
2017-10-10T01:53:54.195Z,89.05
2017-10-10T01:54:34.746Z,89.05
2017-10-10T01:55:15.300Z,89.15
2017-10-10T01:55:55.860Z,89.05
2017-10-10T01:56:36.415Z,88.67
2017-10-10T01:57:16.960Z,89.15
2017-10-10T01:57:57.520Z,89.15
2017-10-10T01:58:38.085Z,88.76
2017-10-10T01:59:18.615Z,88.76
2017-10-10T01:59:59.182Z,88.67
2017-10-10T02:00:39.716Z,88.76
2017-10-10T02:01:20.290Z,89.24
2017-10-10T02:02:00.827Z,89.05
2017-10-10T02:02:41.392Z,89.53
2017-10-10T02:03:21.941Z,89.72
2017-10-10T02:04:02.490Z,89.05
2017-10-10T02:04:43.031Z,89.15
2017-10-10T02:05:23.582Z,89.15
2017-10-10T02:06:04.131Z,88.76
2017-10-10T02:06:44.719Z,89.15
2017-10-10T02:07:25.281Z,89.24
2017-10-10T02:08:05.836Z,88.95
2017-10-10T02:08:46.405Z,89.34
2017-10-10T02:09:26.947Z,89.05
2017-10-10T02:10:07.504Z,89.24
2017-10-10T02:10:48.060Z,88.86
2017-10-10T02:11:28.596Z,89.24
2017-10-10T02:12:09.166Z,89.72
2017-10-10T02:12:49.720Z,89.72
2017-10-10T02:13:30.283Z,89.53
2017-10-10T02:14:10.841Z,89.15
2017-10-10T02:14:51.382Z,89.72
2017-10-10T02:15:31.905Z,89.91
2017-10-10T02:16:12.457Z,89.72
2017-10-10T02:16:52.994Z,89.53
2017-10-10T02:17:33.558Z,89.53
2017-10-10T02:18:14.106Z,89.62
2017-10-10T02:18:54.657Z,89.81
2017-10-10T02:19:35.216Z,89.96
2017-10-10T02:20:15.777Z,90.1
2017-10-10T02:20:56.324Z,89.96
2017-10-10T02:21:36.873Z,89.96
2017-10-10T02:22:17.440Z,90.06
2017-10-10T02:22:58.004Z,90.16
2017-10-10T02:23:38.560Z,90.73
2017-10-10T02:24:19.111Z,90.73
2017-10-10T02:24:59.667Z,90.25
2017-10-10T02:25:40.222Z,90.53
2017-10-10T02:26:20.766Z,90.63
2017-10-10T02:27:01.362Z,90.53
2017-10-10T02:27:41.915Z,90.82
2017-10-10T02:28:22.486Z,90.34
2017-10-10T02:29:03.028Z,90.06
2017-10-10T02:29:43.594Z,89.87
2017-10-10T02:30:24.149Z,89.96
2017-10-10T02:31:04.734Z,90.06
2017-10-10T02:31:45.254Z,89.87
2017-10-10T02:32:25.806Z,90.44
2017-10-10T02:33:06.370Z,90.25
2017-10-10T02:33:46.937Z,89.87
2017-10-10T02:34:27.501Z,90.34
2017-10-10T02:35:08.061Z,90.16
2017-10-10T02:35:48.622Z,90.73
2017-10-10T02:36:29.183Z,90.53
2017-10-10T02:37:09.733Z,90.63
2017-10-10T02:37:50.290Z,90.34
2017-10-10T02:38:30.850Z,90.92
2017-10-10T02:39:11.409Z,90.63
2017-10-10T02:39:51.967Z,90.25
2017-10-10T02:40:32.543Z,90.82
2017-10-10T02:41:13.083Z,90.73
2017-10-10T02:41:53.614Z,90.92
2017-10-10T02:42:34.156Z,90.73
2017-10-10T02:43:14.698Z,90.44
2017-10-10T02:43:55.254Z,90.92
2017-10-10T02:44:35.813Z,90.63
2017-10-10T02:45:16.376Z,90.73
2017-10-10T02:45:56.924Z,90.92
2017-10-10T02:46:37.480Z,90.53
2017-10-10T02:47:18.037Z,91.02
2017-10-10T02:47:58.608Z,91.02
2017-10-10T02:48:39.140Z,90.63
2017-10-10T02:49:19.696Z,90.92
2017-10-10T02:50:00.241Z,90.34
2017-10-10T02:50:40.804Z,90.82
2017-10-10T02:51:21.357Z,90.92
2017-10-10T02:52:01.923Z,90.53
2017-10-10T02:52:42.480Z,89.58
2017-10-10T02:53:23.047Z,90.06
2017-10-10T02:54:03.641Z,90.16
2017-10-10T02:54:44.160Z,90.73
2017-10-10T02:55:24.742Z,91.11
2017-10-10T02:56:05.300Z,91.06
2017-10-10T02:56:45.830Z,91.45
2017-10-10T02:57:26.392Z,91.16
2017-10-10T02:58:06.946Z,91.45
2017-10-10T02:58:47.500Z,91.25
2017-10-10T02:59:28.074Z,91.54
2017-10-10T03:00:08.646Z,91.64
2017-10-10T03:00:49.172Z,91.78
2017-10-10T03:01:29.726Z,91.3
2017-10-10T03:02:10.280Z,91.59
2017-10-10T03:02:50.852Z,91.35
2017-10-10T03:03:31.412Z,91.49
2017-10-10T03:04:11.971Z,91.39
2017-10-10T03:04:52.539Z,91.49
2017-10-10T03:05:33.103Z,91.3
2017-10-10T03:06:13.663Z,91.16
2017-10-10T03:06:54.183Z,91.25
2017-10-10T03:07:34.747Z,91.45
2017-10-10T03:08:15.304Z,91.45
2017-10-10T03:08:55.836Z,91.64
2017-10-10T03:09:36.395Z,91.25
2017-10-10T03:10:16.938Z,91.49
2017-10-10T03:10:57.496Z,91.59
2017-10-10T03:11:38.050Z,91.25
2017-10-10T03:12:18.629Z,91.54
2017-10-10T03:12:59.177Z,91.83
2017-10-10T03:13:39.694Z,92.21
2017-10-10T03:14:20.252Z,92.54
2017-10-10T03:15:00.823Z,92.64
2017-10-10T03:15:41.376Z,91.68
2017-10-10T03:16:21.934Z,91.2
2017-10-10T03:17:02.466Z,90.97
2017-10-10T03:17:42.993Z,91.54
2017-10-10T03:18:23.583Z,91.93
2017-10-10T03:19:04.130Z,91.93
2017-10-10T03:19:44.660Z,92.5
2017-10-10T03:20:25.234Z,92.21
2017-10-10T03:21:05.787Z,92.5
2017-10-10T03:21:46.328Z,92.3
2017-10-10T03:22:26.878Z,92.3
2017-10-10T03:23:07.424Z,92.69
2017-10-10T03:23:47.950Z,92.4
2017-10-10T03:24:28.511Z,92.59
2017-10-10T03:25:09.077Z,92.3
2017-10-10T03:25:49.626Z,92.3
2017-10-10T03:26:30.166Z,92.59
2017-10-10T03:27:10.746Z,92.69
2017-10-10T03:27:51.305Z,92.5
2017-10-10T03:28:31.853Z,92.11
2017-10-10T03:29:12.393Z,92.3
2017-10-10T03:29:52.950Z,92.5
2017-10-10T03:30:33.533Z,92.59
2017-10-10T03:31:14.049Z,92.45
2017-10-10T03:31:54.588Z,92.35
2017-10-10T03:32:35.131Z,92.5
2017-10-10T03:33:15.674Z,91.88
2017-10-10T03:33:56.229Z,91.59
2017-10-10T03:34:36.782Z,91.88
2017-10-10T03:35:17.322Z,91.64
2017-10-10T03:35:57.877Z,91.97
2017-10-10T03:36:38.430Z,92.25
2017-10-10T03:37:19.015Z,92.07
2017-10-10T03:37:59.558Z,92.16
2017-10-10T03:38:40.108Z,91.78
2017-10-10T03:39:20.688Z,91.68
2017-10-10T03:40:01.209Z,92.16
2017-10-10T03:40:41.778Z,92.16
2017-10-10T03:41:22.342Z,92.16
2017-10-10T03:42:02.865Z,92.45
2017-10-10T03:42:43.413Z,91.97
2017-10-10T03:43:23.963Z,92.07
2017-10-10T03:44:04.523Z,91.97
2017-10-10T03:44:45.086Z,92.5
2017-10-10T03:45:25.788Z,92.69
2017-10-10T03:46:06.286Z,92.3
2017-10-10T03:46:46.817Z,92.69
2017-10-10T03:47:27.325Z,92.69
2017-10-10T03:48:07.891Z,92.4
2017-10-10T03:48:48.488Z,92.5
2017-10-10T03:49:29.074Z,92.59
2017-10-10T03:50:09.585Z,92.79
2017-10-10T03:50:50.126Z,92.97
2017-10-10T03:51:30.704Z,92.97
2017-10-10T03:52:11.262Z,92.69
2017-10-10T03:52:51.784Z,92.88
2017-10-10T03:53:32.361Z,92.79
2017-10-10T03:54:12.809Z,93.07
2017-10-10T03:54:53.381Z,92.97
2017-10-10T03:55:33.955Z,93.21
2017-10-10T03:56:14.444Z,92.4
2017-10-10T03:56:54.981Z,92.54
2017-10-10T03:57:35.552Z,92.54
2017-10-10T03:58:16.040Z,92.4
2017-10-10T03:58:56.542Z,92.21
2017-10-10T03:59:37.099Z,92.4
2017-10-10T04:00:17.634Z,92.5
2017-10-10T04:00:58.161Z,92.3
2017-10-10T04:01:38.756Z,92.21
2017-10-10T04:02:19.297Z,93.16
2017-10-10T04:02:59.818Z,93.07
2017-10-10T04:03:40.340Z,92.97
2017-10-10T04:04:20.948Z,92.88
2017-10-10T04:05:01.424Z,92.79
2017-10-10T04:05:42.021Z,92.79
2017-10-10T04:06:22.533Z,92.74
2017-10-10T04:07:03.052Z,92.4
2017-10-10T04:07:43.633Z,92.64
2017-10-10T04:08:24.159Z,92.45
2017-10-10T04:09:04.725Z,91.97
2017-10-10T04:09:45.259Z,92.16
2017-10-10T04:10:25.818Z,92.16
2017-10-10T04:11:06.426Z,92.07
2017-10-10T04:11:46.929Z,91.59
2017-10-10T04:12:27.448Z,91.49
2017-10-10T04:13:07.964Z,91.68
2017-10-10T04:13:48.535Z,91.59
2017-10-10T04:14:29.034Z,91.78
2017-10-10T04:15:09.597Z,91.59
2017-10-10T04:15:50.153Z,91.59
2017-10-10T04:16:30.710Z,91.68
2017-10-10T04:17:11.258Z,91.78
2017-10-10T04:17:51.782Z,91.49
2017-10-10T04:18:32.353Z,91.78
2017-10-10T04:19:12.878Z,91.39
2017-10-10T04:19:53.396Z,91.2
2017-10-10T04:20:33.936Z,91.59
2017-10-10T04:21:14.494Z,91.49
2017-10-10T04:21:55.099Z,91.59
2017-10-10T04:22:35.561Z,91.59
2017-10-10T04:23:16.085Z,91.88
2017-10-10T04:23:56.574Z,91.78
2017-10-10T04:24:37.138Z,91.11
2017-10-10T04:25:17.727Z,91.2
2017-10-10T04:25:58.268Z,91.49
2017-10-10T04:26:38.829Z,91.2
2017-10-10T04:27:19.370Z,91.02
2017-10-10T04:27:59.916Z,91.49
2017-10-10T04:28:40.492Z,91.49
2017-10-10T04:29:21.036Z,91.2
2017-10-10T04:30:01.636Z,91.39
2017-10-10T04:30:42.181Z,91.3
2017-10-10T04:31:22.736Z,91.2
2017-10-10T04:32:03.260Z,91.49
2017-10-10T04:32:43.814Z,91.39
2017-10-10T04:33:24.375Z,90.82
2017-10-10T04:34:04.924Z,91.02
2017-10-10T04:34:45.487Z,91.02
2017-10-10T04:35:26.066Z,91.39
2017-10-10T04:36:06.592Z,91.3
2017-10-10T04:36:47.145Z,91.39
2017-10-10T04:37:27.729Z,91.11
2017-10-10T04:38:08.280Z,91.59
2017-10-10T04:38:48.816Z,91.49
2017-10-10T04:39:29.367Z,91.3
2017-10-10T04:40:09.931Z,91.3
2017-10-10T04:40:50.508Z,91.11
2017-10-10T04:41:30.999Z,90.92
2017-10-10T04:42:11.549Z,91.02
2017-10-10T04:42:52.047Z,91.02
2017-10-10T04:43:32.608Z,91.11
2017-10-10T04:44:13.128Z,91.11
2017-10-10T04:44:53.662Z,90.34
2017-10-10T04:45:34.202Z,90.53
2017-10-10T04:46:14.745Z,90.73
2017-10-10T04:46:55.244Z,90.53
2017-10-10T04:47:35.779Z,90.16
2017-10-10T04:48:16.352Z,90.63
2017-10-10T04:48:56.925Z,90.44
2017-10-10T04:49:37.416Z,91.2
2017-10-10T04:50:17.990Z,90.73
2017-10-10T04:50:58.509Z,90.73
2017-10-10T04:51:39.030Z,90.73
2017-10-10T04:52:19.560Z,90.53
2017-10-10T04:53:00.068Z,90.73
2017-10-10T04:53:40.687Z,90.16
2017-10-10T04:54:21.241Z,90.16
2017-10-10T04:55:01.726Z,90.44
2017-10-10T04:55:42.299Z,90.73
2017-10-10T04:56:22.854Z,90.34
2017-10-10T04:57:03.434Z,90.34
2017-10-10T04:57:43.999Z,90.16
2017-10-10T04:58:24.543Z,90.06
2017-10-10T04:59:05.057Z,90.73
2017-10-10T04:59:45.642Z,90.44
2017-10-10T05:00:26.149Z,90.92
2017-10-10T05:01:06.669Z,90.16
2017-10-10T05:01:49.395Z,90.34
2017-10-10T05:02:27.733Z,90.25
2017-10-10T05:03:08.311Z,90.44
2017-10-10T05:03:48.854Z,90.34
2017-10-10T05:04:29.395Z,90.73
2017-10-10T05:05:09.930Z,90.63
2017-10-10T05:05:50.479Z,90.63
2017-10-10T05:06:31.040Z,90.44
2017-10-10T05:07:11.555Z,90.53
2017-10-10T05:07:52.088Z,90.44
2017-10-10T05:08:32.600Z,90.34
2017-10-10T05:09:13.155Z,90.25
2017-10-10T05:09:53.694Z,90.53
2017-10-10T05:10:34.342Z,89.77
2017-10-10T05:11:14.825Z,90.06
2017-10-10T05:11:55.417Z,90.53
2017-10-10T05:12:35.949Z,90.34
2017-10-10T05:13:16.427Z,89.96
2017-10-10T05:13:56.992Z,90.01
2017-10-10T05:14:37.614Z,90.01
2017-10-10T05:15:18.172Z,89.81
2017-10-10T05:15:58.650Z,89.53
2017-10-10T05:16:39.235Z,89.58
2017-10-10T05:17:19.809Z,89.62
2017-10-10T05:18:00.292Z,89.43
2017-10-10T05:18:40.829Z,89.34
2017-10-10T05:19:21.410Z,89.34
2017-10-10T05:20:01.930Z,88.95
2017-10-10T05:20:42.506Z,89.01
2017-10-10T05:21:23.097Z,89.2
2017-10-10T05:22:03.605Z,89.29
2017-10-10T05:22:44.147Z,89.1
2017-10-10T05:23:24.727Z,88.91
2017-10-10T05:24:05.242Z,89.1
2017-10-10T05:24:45.768Z,89.39
2017-10-10T05:25:26.343Z,90.53
2017-10-10T05:26:06.924Z,90.53
2017-10-10T05:26:47.436Z,90.34
2017-10-10T05:27:27.948Z,90.48
2017-10-10T05:28:08.470Z,90.53
2017-10-10T05:28:49.021Z,90.16
2017-10-10T05:29:29.575Z,90.16
2017-10-10T05:30:10.133Z,90.39
2017-10-10T05:30:50.694Z,90.48
2017-10-10T05:31:31.211Z,89.81
2017-10-10T05:32:11.793Z,89.67
2017-10-10T05:32:52.317Z,90.39
2017-10-10T05:33:32.879Z,90.96
2017-10-10T05:34:13.444Z,91.25
2017-10-10T05:34:54.008Z,91.35
2017-10-10T05:35:34.546Z,91.83
2017-10-10T05:36:15.128Z,91.44
2017-10-10T05:36:55.680Z,91.25
2017-10-10T05:37:36.257Z,91.83
2017-10-10T05:38:16.880Z,91.53
2017-10-10T05:38:57.377Z,90.96
2017-10-10T05:39:37.955Z,91.63
2017-10-10T05:40:18.501Z,91.53
2017-10-10T05:40:59.033Z,90.39
2017-10-10T05:41:39.573Z,90.39
2017-10-10T05:42:20.191Z,89.62
2017-10-10T05:43:00.716Z,89.81
2017-10-10T05:43:41.258Z,90.77
2017-10-10T05:44:21.788Z,90.77
2017-10-10T05:45:02.419Z,90.39
2017-10-10T05:45:42.858Z,90.2
2017-10-10T05:46:23.383Z,90.96
2017-10-10T05:47:03.936Z,91.25
2017-10-10T05:47:44.463Z,91.16
2017-10-10T05:48:25.078Z,90.2
2017-10-10T05:49:05.580Z,89.91
2017-10-10T05:49:46.175Z,90.58
2017-10-10T05:50:26.702Z,89.72
2017-10-10T05:51:07.212Z,89.53
2017-10-10T05:51:47.777Z,90.01
2017-10-10T05:52:28.289Z,90.39
2017-10-10T05:53:08.887Z,90.3
2017-10-10T05:53:49.450Z,90.39
2017-10-10T05:54:30.017Z,90.53
2017-10-10T05:55:10.524Z,90.05
2017-10-10T05:55:51.086Z,88.62
2017-10-10T05:56:31.623Z,88.52
2017-10-10T05:57:12.158Z,89.09
2017-10-10T05:57:52.670Z,88.33
2017-10-10T05:58:33.223Z,88.23
2017-10-10T05:59:13.773Z,88.23
2017-10-10T05:59:54.320Z,88.23
2017-10-10T06:00:34.875Z,87.66
2017-10-10T06:01:15.401Z,87.95
2017-10-10T06:01:56.041Z,87.95
2017-10-10T06:02:36.502Z,87.95
2017-10-10T06:03:17.002Z,88.13
2017-10-10T06:03:57.553Z,88.33
2017-10-10T06:04:38.203Z,88.43
2017-10-10T06:05:18.876Z,94.55
2017-10-10T06:05:59.336Z,99.99
2017-10-10T06:08:14.162Z,99.99
2017-10-10T06:08:54.240Z,99.99
2017-10-10T06:09:34.767Z,99.99
2017-10-10T06:10:15.293Z,99.99
2017-10-10T06:10:55.859Z,99.99
2017-10-10T06:11:36.407Z,99.99
2017-10-10T06:12:16.919Z,99.99
2017-10-10T06:12:57.457Z,99.96
2017-10-10T06:13:38.014Z,99.99
2017-10-10T06:14:18.548Z,99.99
2017-10-10T06:14:59.054Z,99.99
2017-10-10T06:15:39.583Z,98.05
2017-10-10T06:16:20.114Z,99.99
2017-10-10T06:17:00.702Z,99.99
2017-10-10T06:17:41.218Z,99.99
2017-10-10T06:18:21.796Z,99.99
2017-10-10T06:19:02.398Z,99.99
2017-10-10T06:19:42.944Z,99.99
2017-10-10T06:20:23.486Z,99.99
2017-10-10T06:21:04.202Z,99.99
2017-10-10T06:21:44.763Z,99.99
2017-10-10T06:22:25.319Z,99.99
2017-10-10T06:23:05.855Z,98
2017-10-10T06:23:46.470Z,93.93
2017-10-10T06:24:27.051Z,93.98
2017-10-10T06:25:07.594Z,92.44
2017-10-10T06:25:48.098Z,92.35
2017-10-10T06:26:28.618Z,95.89
2017-10-10T06:27:09.170Z,99.99
2017-10-10T06:27:49.663Z,99.99
2017-10-10T06:28:30.269Z,99.99
2017-10-10T06:29:10.742Z,99.99
2017-10-10T06:29:51.280Z,99.99
2017-10-10T06:30:31.834Z,99.99
2017-10-10T06:31:12.399Z,99.99
2017-10-10T06:31:52.931Z,99.99
2017-10-10T06:32:33.493Z,99.99
2017-10-10T06:33:14.087Z,99.99
2017-10-10T06:33:54.588Z,99.99
2017-10-10T06:34:35.135Z,99.99
2017-10-10T06:35:15.730Z,99.99
2017-10-10T06:35:56.289Z,99.99
2017-10-10T06:36:36.787Z,99.99
2017-10-10T06:37:17.391Z,96.89
2017-10-10T06:37:57.888Z,97.47
2017-10-10T06:38:38.459Z,94.79
2017-10-10T06:39:19.045Z,95.07
2017-10-10T06:39:59.503Z,91.63
2017-10-10T06:40:40.093Z,90.67
2017-10-10T06:41:20.672Z,89.8
2017-10-10T06:42:01.210Z,87.98
2017-10-10T06:42:41.740Z,87.31
2017-10-10T06:43:22.319Z,86.74
2017-10-10T06:44:02.832Z,87.02
2017-10-10T06:44:43.356Z,86.83
2017-10-10T06:45:23.891Z,85.68
2017-10-10T06:46:04.481Z,85.58
2017-10-10T06:46:44.965Z,85.11
2017-10-10T06:47:25.538Z,85.11
2017-10-10T06:48:06.079Z,85.11
2017-10-10T06:48:46.601Z,84.63
2017-10-10T06:49:27.203Z,85.39
2017-10-10T06:50:07.687Z,85.49
2017-10-10T06:50:48.232Z,84.53
2017-10-10T06:51:28.796Z,85.21
2017-10-10T06:52:09.371Z,84.63
2017-10-10T06:52:49.917Z,85.05
2017-10-10T06:53:30.472Z,84.58
2017-10-10T06:54:11.033Z,84.67
2017-10-10T06:54:51.576Z,84.09
2017-10-10T06:55:32.095Z,83.04
2017-10-10T06:56:12.625Z,83.91
2017-10-10T06:56:53.183Z,83.52
2017-10-10T06:57:33.665Z,83.04
2017-10-10T06:58:14.212Z,84.28
2017-10-10T06:58:54.747Z,91.96
2017-10-10T06:59:35.281Z,96.94
2017-10-10T07:00:15.877Z,99.99
2017-10-10T07:00:56.439Z,99.99
2017-10-10T07:01:36.965Z,99.99
2017-10-10T07:02:17.478Z,99.99
2017-10-10T07:02:57.981Z,99.99
2017-10-10T07:03:38.553Z,99.99
2017-10-10T07:04:19.052Z,99.99
2017-10-10T07:04:59.597Z,99.1
2017-10-10T07:05:40.159Z,99.99
2017-10-10T07:06:20.671Z,99.99
2017-10-10T07:07:01.239Z,99.99
2017-10-10T07:07:41.742Z,98.33
2017-10-10T07:08:22.300Z,99.99
2017-10-10T07:09:02.851Z,99.99
2017-10-10T07:09:43.445Z,99.99
2017-10-10T07:10:24.038Z,99.99
2017-10-10T07:11:04.583Z,94.64
2017-10-10T07:11:45.106Z,94.54
2017-10-10T07:12:25.676Z,90.28
2017-10-10T07:13:06.215Z,86.05
2017-10-10T07:13:46.797Z,86.15
2017-10-10T07:14:27.354Z,86.25
2017-10-10T07:15:07.889Z,85.86
2017-10-10T07:15:48.411Z,92.82
2017-10-10T07:16:28.985Z,96.27
2017-10-10T07:17:09.514Z,99.99
2017-10-10T07:17:50.107Z,95.21
2017-10-10T07:18:30.587Z,99.99
2017-10-10T07:19:11.107Z,99.99
2017-10-10T07:19:51.669Z,92.24
2017-10-10T07:20:32.210Z,99.82
2017-10-10T07:21:12.757Z,99.99
2017-10-10T07:21:53.318Z,99.99
2017-10-10T07:22:33.885Z,99.99
2017-10-10T07:23:14.379Z,99.99
2017-10-10T07:23:54.972Z,99.99
2017-10-10T07:24:35.467Z,99.99
2017-10-10T07:25:16.015Z,99.99
2017-10-10T07:25:56.546Z,99.99
2017-10-10T07:26:37.114Z,99.99
2017-10-10T07:27:17.672Z,99.99
2017-10-10T07:27:58.235Z,99.99
2017-10-10T07:28:38.772Z,99.82
2017-10-10T07:29:19.310Z,99.99
2017-10-10T07:29:59.856Z,99.15
2017-10-10T07:30:40.690Z,92.77
2017-10-10T07:31:21.208Z,97.56
2017-10-10T07:32:01.758Z,98.53
2017-10-10T07:32:42.303Z,93.82
2017-10-10T07:33:22.858Z,86.92
2017-10-10T07:34:03.417Z,83.23
2017-10-10T07:34:43.969Z,84.09
2017-10-10T07:35:24.533Z,85.38
2017-10-10T07:36:05.098Z,84.77
2017-10-10T07:36:45.664Z,84.67
2017-10-10T07:37:26.223Z,83.42
2017-10-10T07:38:06.812Z,83.52
2017-10-10T07:38:47.333Z,84.19
2017-10-10T07:39:27.894Z,85.05
2017-10-10T07:40:08.476Z,85.15
2017-10-10T07:40:49.027Z,83.91
2017-10-10T07:41:29.594Z,84.09
2017-10-10T07:42:10.128Z,84.58
2017-10-10T07:42:50.715Z,83.52
2017-10-10T07:43:31.292Z,83.52
2017-10-10T07:44:11.794Z,84.28
2017-10-10T07:44:52.314Z,84.19
2017-10-10T07:45:32.857Z,82.75
2017-10-10T07:46:13.457Z,82.75
2017-10-10T07:46:54.052Z,84.48
2017-10-10T07:47:34.606Z,83.52
2017-10-10T07:48:15.099Z,84.09
2017-10-10T07:48:55.640Z,84.48
2017-10-10T07:49:36.208Z,84.61
2017-10-10T07:50:16.751Z,97.38
2017-10-10T07:50:57.302Z,99.58
2017-10-10T07:51:37.856Z,99.39
2017-10-10T07:52:18.460Z,99.99
2017-10-10T07:52:58.956Z,99.99
2017-10-10T07:53:39.501Z,98.43
2017-10-10T07:54:20.032Z,99.99
2017-10-10T07:55:00.579Z,99.99
2017-10-10T07:55:41.124Z,99.99
2017-10-10T07:56:21.669Z,99.99
2017-10-10T07:57:02.228Z,99.99
2017-10-10T07:57:42.783Z,98.29
2017-10-10T07:58:23.345Z,99.82
2017-10-10T07:59:03.871Z,99.99
2017-10-10T07:59:44.401Z,99.99
2017-10-10T08:00:24.958Z,94.74
2017-10-10T08:01:05.501Z,88.79
2017-10-10T08:01:46.029Z,86.19
2017-10-10T08:02:26.592Z,84.71
2017-10-10T08:03:07.137Z,84.33
2017-10-10T08:03:47.678Z,85.1
2017-10-10T08:04:28.210Z,83.08
2017-10-10T08:05:08.751Z,89.79
2017-10-10T08:05:49.304Z,99.99
2017-10-10T08:06:29.834Z,99.99
2017-10-10T08:07:10.358Z,99.99
2017-10-10T08:07:50.894Z,99.99
2017-10-10T08:08:31.452Z,99.99
2017-10-10T08:09:12.025Z,99.99
2017-10-10T08:09:52.623Z,99.99
2017-10-10T08:10:33.157Z,99.99
2017-10-10T08:11:13.711Z,99.99
2017-10-10T08:11:54.241Z,99.99
2017-10-10T08:12:34.813Z,99.99
2017-10-10T08:13:15.374Z,99.99
2017-10-10T08:13:55.904Z,99.99
2017-10-10T08:14:36.466Z,99.99
2017-10-10T08:15:17.021Z,99.99
2017-10-10T08:15:57.570Z,99.99
2017-10-10T08:16:38.103Z,99.99
2017-10-10T08:17:18.669Z,99.99
2017-10-10T08:17:59.259Z,99.99
2017-10-10T08:18:39.810Z,99.99
2017-10-10T08:19:20.290Z,99.99
2017-10-10T08:20:00.852Z,99.99
2017-10-10T08:20:41.515Z,99.99
2017-10-10T08:21:22.079Z,98.58
2017-10-10T08:22:02.639Z,99.99
2017-10-10T08:22:43.315Z,93.06
2017-10-10T08:23:23.863Z,90.18
2017-10-10T08:24:04.477Z,90.37
2017-10-10T08:24:45.026Z,88.74
2017-10-10T08:25:25.546Z,87.01
2017-10-10T08:26:06.101Z,87.49
2017-10-10T08:26:46.680Z,88.55
2017-10-10T08:27:27.253Z,87.49
2017-10-10T08:28:07.795Z,87.21
2017-10-10T08:28:48.329Z,87.11
2017-10-10T08:29:28.862Z,89.12
2017-10-10T08:30:09.423Z,87.88
2017-10-10T08:30:50.010Z,88.55
2017-10-10T08:31:30.527Z,85.67
2017-10-10T08:32:11.084Z,87.3
2017-10-10T08:32:51.678Z,88.84
2017-10-10T08:33:32.203Z,87.84
2017-10-10T08:34:12.793Z,93.44
2017-10-10T08:34:53.366Z,99.99
2017-10-10T08:35:33.927Z,99.99
2017-10-10T08:36:14.484Z,99.99
2017-10-10T08:36:55.007Z,99.99
2017-10-10T08:37:35.603Z,99.99
2017-10-10T08:38:16.164Z,99.99
2017-10-10T08:38:56.719Z,99.99
2017-10-10T08:39:37.261Z,99.99
2017-10-10T08:40:17.858Z,99.99
2017-10-10T08:40:58.536Z,97.91
2017-10-10T08:41:39.160Z,99.99
2017-10-10T08:42:19.645Z,99.99
2017-10-10T08:43:00.262Z,94.45
2017-10-10T08:43:40.799Z,90.42
2017-10-10T08:44:21.357Z,89.7
2017-10-10T08:45:01.880Z,89.79